Lawton, MI (49065)

3:28 AM EST on February 01, 2015 (GMT -0500)
Allers Precision Lawn Care | Change Station
CLOSE
Current Station
Personal Weather Station
Location: Mattawan, MI
Elevation: 837 ft
Nearby Weather Stations
Active Advisory: Winter Storm Warning

Elev 837 ft 42.21 °N, 85.79 °W | Updated 12 minutes ago

Snow
Snow
28.2 °F
Feels Like 28 °F
N
2.0
Wind Variable Wind from NNE
Gusts 4.0 mph

Today
High -- | Low -- °F
--% Chance of Precip.
Yesterday
High -- | Low -- °F
Precip. -- in
7:56 AM 5:57 PM
Waxing Gibbous, 94% visible
Pressure 30.18 in
Visibility 0.8 miles
Clouds
Windchill 28 °F
Dew Point 27 °F
Humidity 94%
Rainfall 0.00 in
Snow Depth Not available.
UV Not available.
Pollen .10 out of 12
Air Quality Not available.
Flu Activity Not available.
METAR KAZO 010753Z AUTO 05003KT 3/4SM R35/P6000FT -SN BR VV013 M01/M03 A3014 RMK AO2 SLP218 P0003 T10111028

More Conditions Fewer Conditions

Pressure 30.18 in
Visibility 0.8 miles
Clouds
Windchill 28 °F
Dew Point 27 °F
Humidity 94%
Rainfall 0.00 in
Snow Depth Not available.
UV Not available.
Pollen .10 out of 12
Air Quality Not available.
Flu Activity Not available.
METAR KAZO 010753Z AUTO 05003KT 3/4SM R35/P6000FT -SN BR VV013 M01/M03 A3014 RMK AO2 SLP218 P0003 T10111028

More Conditions Fewer Conditions

10-Day Weather Forecast

Almanac

Astronomy

Feb. 01, 2015 Rise Set
Actual Time
Civil Twilight
Nautical Twilight
Astronomical Twilight
Moon
Length of Visible Light
Length of Day
Tomorrow will be .
, % of the Moon is Illuminated

Today's Extremes

State Highs State Lows

Community

WunderPhotos

Upload Photos

1,792,332 photos uploaded!

WunderBlogs® & News

Nearby

Air Quality

  Air Quality AQ Index Pollutant
Not available.

Snow Depth

Station Depth Elevation

Earthquake Activity

City Distance Mag. Time & Date
Minimum magnitude displayed is 2.5.

Coastal Water Temperatures

Place Temperature

Nearby Weather Stations